sensor_id;sensor_type;location;lat;lon;timestamp;P1;durP1;ratioP1;P2;durP2;ratioP2
5833;SDS011;2943;48.012;10.968;2022-08-01T00:02:26;3.07;;;2.77;;
5833;SDS011;2943;48.012;10.968;2022-08-01T00:04:53;3.13;;;2.87;;
5833;SDS011;2943;48.012;10.968;2022-08-01T00:07:21;2.90;;;2.70;;
5833;SDS011;2943;48.012;10.968;2022-08-01T00:09:49;4.43;;;2.80;;
5833;SDS011;2943;48.012;10.968;2022-08-01T00:12:17;3.23;;;2.80;;
5833;SDS011;2943;48.012;10.968;2022-08-01T00:14:44;2.77;;;2.53;;
5833;SDS011;2943;48.012;10.968;2022-08-01T00:17:11;3.90;;;3.60;;
5833;SDS011;2943;48.012;10.968;2022-08-01T00:19:39;3.07;;;2.83;;
5833;SDS011;2943;48.012;10.968;2022-08-01T00:22:06;3.53;;;3.10;;
5833;SDS011;2943;48.012;10.968;2022-08-01T00:24:34;2.73;;;2.53;;
5833;SDS011;2943;48.012;10.968;2022-08-01T00:27:03;9.20;;;3.40;;
5833;SDS011;2943;48.012;10.968;2022-08-01T00:29:30;3.60;;;2.90;;
5833;SDS011;2943;48.012;10.968;2022-08-01T00:31:57;3.20;;;2.93;;
5833;SDS011;2943;48.012;10.968;2022-08-01T00:34:25;2.80;;;2.60;;
5833;SDS011;2943;48.012;10.968;2022-08-01T00:36:52;4.67;;;3.17;;
5833;SDS011;2943;48.012;10.968;2022-08-01T00:39:19;4.07;;;3.53;;
5833;SDS011;2943;48.012;10.968;2022-08-01T00:41:47;3.13;;;2.93;;
5833;SDS011;2943;48.012;10.968;2022-08-01T00:44:16;3.33;;;2.73;;
5833;SDS011;2943;48.012;10.968;2022-08-01T00:46:43;3.10;;;2.73;;
5833;SDS011;2943;48.012;10.968;2022-08-01T00:49:10;3.80;;;3.40;;
5833;SDS011;2943;48.012;10.968;2022-08-01T00:51:38;3.37;;;2.80;;
5833;SDS011;2943;48.012;10.968;2022-08-01T00:54:06;5.30;;;2.90;;
5833;SDS011;2943;48.012;10.968;2022-08-01T00:56:33;3.10;;;2.73;;
5833;SDS011;2943;48.012;10.968;2022-08-01T00:59:00;3.40;;;3.10;;
5833;SDS011;2943;48.012;10.968;2022-08-01T01:01:32;4.33;;;3.30;;
5833;SDS011;2943;48.012;10.968;2022-08-01T01:04:00;4.13;;;3.10;;
5833;SDS011;2943;48.012;10.968;2022-08-01T01:06:29;4.83;;;3.00;;
5833;SDS011;2943;48.012;10.968;2022-08-01T01:12:02;3.30;;;3.07;;
5833;SDS011;2943;48.012;10.968;2022-08-01T01:14:41;4.00;;;2.97;;
5833;SDS011;2943;48.012;10.968;2022-08-01T01:17:13;3.67;;;3.37;;
5833;SDS011;2943;48.012;10.968;2022-08-01T01:19:45;6.53;;;3.10;;
5833;SDS011;2943;48.012;10.968;2022-08-01T01:22:21;3.57;;;3.20;;
5833;SDS011;2943;48.012;10.968;2022-08-01T01:25:07;3.13;;;2.93;;
5833;SDS011;2943;48.012;10.968;2022-08-01T01:27:50;3.30;;;3.00;;
5833;SDS011;2943;48.012;10.968;2022-08-01T01:30:26;4.10;;;3.20;;
5833;SDS011;2943;48.012;10.968;2022-08-01T01:32:58;4.03;;;3.03;;
5833;SDS011;2943;48.012;10.968;2022-08-01T01:35:29;3.47;;;3.17;;
5833;SDS011;2943;48.012;10.968;2022-08-01T01:38:01;3.33;;;3.03;;
5833;SDS011;2943;48.012;10.968;2022-08-01T01:40:33;4.83;;;3.47;;
5833;SDS011;2943;48.012;10.968;2022-08-01T01:43:02;5.10;;;2.93;;
5833;SDS011;2943;48.012;10.968;2022-08-01T01:45:31;3.10;;;2.80;;
5833;SDS011;2943;48.012;10.968;2022-08-01T01:47:59;6.23;;;3.47;;
5833;SDS011;2943;48.012;10.968;2022-08-01T01:50:28;3.50;;;3.20;;
5833;SDS011;2943;48.012;10.968;2022-08-01T01:52:57;3.70;;;3.40;;
5833;SDS011;2943;48.012;10.968;2022-08-01T01:55:25;4.57;;;2.93;;
5833;SDS011;2943;48.012;10.968;2022-08-01T01:57:54;3.00;;;2.80;;
5833;SDS011;2943;48.012;10.968;2022-08-01T02:00:23;3.53;;;3.23;;
5833;SDS011;2943;48.012;10.968;2022-08-01T02:02:53;3.83;;;3.43;;
5833;SDS011;2943;48.012;10.968;2022-08-01T02:05:22;3.20;;;3.00;;
5833;SDS011;2943;48.012;10.968;2022-08-01T02:07:50;3.60;;;2.83;;
5833;SDS011;2943;48.012;10.968;2022-08-01T02:10:20;3.90;;;3.20;;
5833;SDS011;2943;48.012;10.968;2022-08-01T02:12:48;3.70;;;3.40;;
5833;SDS011;2943;48.012;10.968;2022-08-01T02:15:17;3.70;;;3.40;;
5833;SDS011;2943;48.012;10.968;2022-08-01T02:17:46;3.30;;;3.10;;
5833;SDS011;2943;48.012;10.968;2022-08-01T02:20:17;5.20;;;3.30;;
5833;SDS011;2943;48.012;10.968;2022-08-01T02:22:46;3.40;;;3.20;;
5833;SDS011;2943;48.012;10.968;2022-08-01T02:25:18;4.07;;;3.67;;
5833;SDS011;2943;48.012;10.968;2022-08-01T02:27:51;6.97;;;3.50;;
5833;SDS011;2943;48.012;10.968;2022-08-01T02:30:25;7.00;;;3.33;;
5833;SDS011;2943;48.012;10.968;2022-08-01T02:32:57;3.03;;;2.83;;
5833;SDS011;2943;48.012;10.968;2022-08-01T02:35:29;3.53;;;3.23;;
5833;SDS011;2943;48.012;10.968;2022-08-01T02:38:00;4.27;;;3.50;;
5833;SDS011;2943;48.012;10.968;2022-08-01T02:40:31;4.70;;;2.80;;
5833;SDS011;2943;48.012;10.968;2022-08-01T02:43:00;13.40;;;3.60;;
5833;SDS011;2943;48.012;10.968;2022-08-01T02:45:29;3.67;;;3.37;;
5833;SDS011;2943;48.012;10.968;2022-08-01T02:47:59;5.70;;;3.33;;
5833;SDS011;2943;48.012;10.968;2022-08-01T02:50:35;4.30;;;3.27;;
5833;SDS011;2943;48.012;10.968;2022-08-01T02:53:03;5.17;;;3.70;;
5833;SDS011;2943;48.012;10.968;2022-08-01T02:55:35;4.87;;;2.90;;
5833;SDS011;2943;48.012;10.968;2022-08-01T02:58:04;7.53;;;3.50;;
5833;SDS011;2943;48.012;10.968;2022-08-01T03:00:35;3.67;;;3.40;;
5833;SDS011;2943;48.012;10.968;2022-08-01T03:03:03;6.63;;;4.03;;
5833;SDS011;2943;48.012;10.968;2022-08-01T03:05:33;3.43;;;3.00;;
5833;SDS011;2943;48.012;10.968;2022-08-01T03:08:05;3.53;;;3.23;;
5833;SDS011;2943;48.012;10.968;2022-08-01T03:10:34;3.40;;;3.13;;
5833;SDS011;2943;48.012;10.968;2022-08-01T03:13:05;4.03;;;3.07;;
5833;SDS011;2943;48.012;10.968;2022-08-01T03:15:34;4.50;;;3.40;;
5833;SDS011;2943;48.012;10.968;2022-08-01T03:18:05;3.50;;;3.20;;
5833;SDS011;2943;48.012;10.968;2022-08-01T03:20:34;3.30;;;3.10;;
5833;SDS011;2943;48.012;10.968;2022-08-01T03:23:04;3.53;;;3.33;;
5833;SDS011;2943;48.012;10.968;2022-08-01T03:25:34;2.77;;;2.57;;
5833;SDS011;2943;48.012;10.968;2022-08-01T03:28:04;3.63;;;3.33;;
5833;SDS011;2943;48.012;10.968;2022-08-01T03:30:33;4.83;;;3.33;;
5833;SDS011;2943;48.012;10.968;2022-08-01T03:33:03;4.43;;;2.97;;
5833;SDS011;2943;48.012;10.968;2022-08-01T03:35:32;3.23;;;2.93;;
5833;SDS011;2943;48.012;10.968;2022-08-01T03:38:04;3.17;;;2.97;;
5833;SDS011;2943;48.012;10.968;2022-08-01T03:40:35;5.60;;;3.80;;
5833;SDS011;2943;48.012;10.968;2022-08-01T03:43:07;3.00;;;2.80;;
5833;SDS011;2943;48.012;10.968;2022-08-01T03:45:45;3.23;;;2.93;;
5833;SDS011;2943;48.012;10.968;2022-08-01T03:48:19;3.27;;;2.97;;
5833;SDS011;2943;48.012;10.968;2022-08-01T03:50:50;3.40;;;3.10;;
5833;SDS011;2943;48.012;10.968;2022-08-01T03:53:22;3.43;;;3.13;;
5833;SDS011;2943;48.012;10.968;2022-08-01T03:55:52;3.37;;;3.07;;
5833;SDS011;2943;48.012;10.968;2022-08-01T03:58:20;3.43;;;3.07;;
5833;SDS011;2943;48.012;10.968;2022-08-01T04:00:48;9.00;;;3.07;;
5833;SDS011;2943;48.012;10.968;2022-08-01T04:03:16;4.90;;;3.23;;
5833;SDS011;2943;48.012;10.968;2022-08-01T04:05:44;3.57;;;3.27;;
5833;SDS011;2943;48.012;10.968;2022-08-01T04:08:11;3.50;;;3.20;;
5833;SDS011;2943;48.012;10.968;2022-08-01T04:10:40;4.60;;;3.10;;
5833;SDS011;2943;48.012;10.968;2022-08-01T04:13:08;3.40;;;3.00;;
5833;SDS011;2943;48.012;10.968;2022-08-01T04:15:35;5.30;;;3.40;;
5833;SDS011;2943;48.012;10.968;2022-08-01T04:18:02;4.60;;;3.20;;
5833;SDS011;2943;48.012;10.968;2022-08-01T04:20:31;4.13;;;3.40;;
5833;SDS011;2943;48.012;10.968;2022-08-01T04:22:59;6.40;;;3.33;;
5833;SDS011;2943;48.012;10.968;2022-08-01T04:25:28;3.70;;;3.27;;
5833;SDS011;2943;48.012;10.968;2022-08-01T04:28:00;3.60;;;3.30;;
5833;SDS011;2943;48.012;10.968;2022-08-01T04:30:31;7.97;;;3.53;;
5833;SDS011;2943;48.012;10.968;2022-08-01T04:33:01;3.87;;;3.50;;
5833;SDS011;2943;48.012;10.968;2022-08-01T04:35:31;4.20;;;3.50;;
5833;SDS011;2943;48.012;10.968;2022-08-01T04:38:00;5.77;;;3.33;;
5833;SDS011;2943;48.012;10.968;2022-08-01T04:40:29;4.17;;;3.17;;
5833;SDS011;2943;48.012;10.968;2022-08-01T04:42:57;7.13;;;3.60;;
5833;SDS011;2943;48.012;10.968;2022-08-01T04:45:25;3.40;;;3.13;;
5833;SDS011;2943;48.012;10.968;2022-08-01T04:47:54;3.70;;;3.40;;
5833;SDS011;2943;48.012;10.968;2022-08-01T04:50:22;3.23;;;2.93;;
5833;SDS011;2943;48.012;10.968;2022-08-01T04:52:50;3.00;;;2.80;;
5833;SDS011;2943;48.012;10.968;2022-08-01T04:55:18;3.90;;;3.30;;
5833;SDS011;2943;48.012;10.968;2022-08-01T04:57:46;3.90;;;3.47;;
5833;SDS011;2943;48.012;10.968;2022-08-01T05:00:14;5.37;;;3.93;;
5833;SDS011;2943;48.012;10.968;2022-08-01T05:02:44;3.40;;;2.93;;
5833;SDS011;2943;48.012;10.968;2022-08-01T05:05:11;5.80;;;3.50;;
5833;SDS011;2943;48.012;10.968;2022-08-01T05:07:40;3.43;;;3.13;;
5833;SDS011;2943;48.012;10.968;2022-08-01T05:10:07;3.70;;;3.07;;
5833;SDS011;2943;48.012;10.968;2022-08-01T05:12:35;7.83;;;3.37;;
5833;SDS011;2943;48.012;10.968;2022-08-01T05:15:03;4.97;;;3.83;;
5833;SDS011;2943;48.012;10.968;2022-08-01T05:17:31;3.67;;;3.37;;
5833;SDS011;2943;48.012;10.968;2022-08-01T05:20:00;3.80;;;3.50;;
5833;SDS011;2943;48.012;10.968;2022-08-01T05:22:28;3.47;;;3.17;;
5833;SDS011;2943;48.012;10.968;2022-08-01T05:24:55;7.03;;;3.57;;
5833;SDS011;2943;48.012;10.968;2022-08-01T05:27:22;7.90;;;3.23;;
5833;SDS011;2943;48.012;10.968;2022-08-01T05:29:49;4.33;;;3.10;;
5833;SDS011;2943;48.012;10.968;2022-08-01T05:32:16;5.77;;;3.43;;
5833;SDS011;2943;48.012;10.968;2022-08-01T05:34:44;5.83;;;3.97;;
5833;SDS011;2943;48.012;10.968;2022-08-01T05:37:13;5.20;;;3.20;;
5833;SDS011;2943;48.012;10.968;2022-08-01T05:39:40;3.37;;;3.07;;
5833;SDS011;2943;48.012;10.968;2022-08-01T05:42:08;5.80;;;3.60;;
5833;SDS011;2943;48.012;10.968;2022-08-01T05:44:35;3.33;;;3.03;;
5833;SDS011;2943;48.012;10.968;2022-08-01T05:47:02;3.97;;;3.43;;
5833;SDS011;2943;48.012;10.968;2022-08-01T05:49:30;3.50;;;3.20;;
5833;SDS011;2943;48.012;10.968;2022-08-01T05:51:57;4.40;;;3.97;;
5833;SDS011;2943;48.012;10.968;2022-08-01T05:54:27;4.57;;;4.10;;
5833;SDS011;2943;48.012;10.968;2022-08-01T05:56:55;7.53;;;3.70;;
5833;SDS011;2943;48.012;10.968;2022-08-01T05:59:26;4.57;;;3.77;;
5833;SDS011;2943;48.012;10.968;2022-08-01T06:01:54;4.40;;;3.93;;
5833;SDS011;2943;48.012;10.968;2022-08-01T06:04:21;9.60;;;3.33;;
5833;SDS011;2943;48.012;10.968;2022-08-01T06:06:49;3.73;;;3.30;;
5833;SDS011;2943;48.012;10.968;2022-08-01T06:09:16;4.00;;;3.40;;
5833;SDS011;2943;48.012;10.968;2022-08-01T06:11:45;6.00;;;3.80;;
5833;SDS011;2943;48.012;10.968;2022-08-01T06:14:13;4.40;;;3.70;;
5833;SDS011;2943;48.012;10.968;2022-08-01T06:16:40;3.97;;;3.57;;
5833;SDS011;2943;48.012;10.968;2022-08-01T06:19:07;3.70;;;3.30;;
5833;SDS011;2943;48.012;10.968;2022-08-01T06:21:35;3.43;;;3.20;;
5833;SDS011;2943;48.012;10.968;2022-08-01T06:24:03;8.77;;;3.40;;
5833;SDS011;2943;48.012;10.968;2022-08-01T06:26:30;4.13;;;3.73;;
5833;SDS011;2943;48.012;10.968;2022-08-01T06:28:59;10.60;;;3.77;;
5833;SDS011;2943;48.012;10.968;2022-08-01T06:31:27;7.97;;;3.93;;
5833;SDS011;2943;48.012;10.968;2022-08-01T06:33:56;4.80;;;3.90;;
5833;SDS011;2943;48.012;10.968;2022-08-01T06:36:23;4.17;;;3.77;;
5833;SDS011;2943;48.012;10.968;2022-08-01T06:38:51;4.03;;;3.73;;
5833;SDS011;2943;48.012;10.968;2022-08-01T06:41:18;3.80;;;3.50;;
5833;SDS011;2943;48.012;10.968;2022-08-01T06:43:45;4.13;;;3.77;;
5833;SDS011;2943;48.012;10.968;2022-08-01T06:46:14;4.60;;;4.10;;
5833;SDS011;2943;48.012;10.968;2022-08-01T06:48:42;4.03;;;3.73;;
5833;SDS011;2943;48.012;10.968;2022-08-01T06:51:09;7.93;;;4.10;;
5833;SDS011;2943;48.012;10.968;2022-08-01T06:53:40;3.93;;;3.57;;
5833;SDS011;2943;48.012;10.968;2022-08-01T06:56:07;4.00;;;3.60;;
5833;SDS011;2943;48.012;10.968;2022-08-01T06:58:35;4.23;;;3.83;;
5833;SDS011;2943;48.012;10.968;2022-08-01T07:01:03;6.33;;;3.97;;
5833;SDS011;2943;48.012;10.968;2022-08-01T07:03:33;4.13;;;3.73;;
5833;SDS011;2943;48.012;10.968;2022-08-01T07:06:01;4.17;;;3.80;;
5833;SDS011;2943;48.012;10.968;2022-08-01T07:08:28;3.80;;;3.50;;
5833;SDS011;2943;48.012;10.968;2022-08-01T07:10:56;6.37;;;3.57;;
5833;SDS011;2943;48.012;10.968;2022-08-01T07:13:24;5.80;;;3.83;;
5833;SDS011;2943;48.012;10.968;2022-08-01T07:15:52;6.83;;;4.33;;
5833;SDS011;2943;48.012;10.968;2022-08-01T07:18:19;6.60;;;3.60;;
5833;SDS011;2943;48.012;10.968;2022-08-01T07:20:48;5.83;;;3.73;;
5833;SDS011;2943;48.012;10.968;2022-08-01T07:23:16;4.63;;;3.73;;
5833;SDS011;2943;48.012;10.968;2022-08-01T07:25:43;5.33;;;4.27;;
5833;SDS011;2943;48.012;10.968;2022-08-01T07:28:10;6.87;;;3.53;;
5833;SDS011;2943;48.012;10.968;2022-08-01T07:30:38;4.27;;;3.63;;
5833;SDS011;2943;48.012;10.968;2022-08-01T07:33:07;4.73;;;3.80;;
5833;SDS011;2943;48.012;10.968;2022-08-01T07:35:34;4.83;;;3.70;;
5833;SDS011;2943;48.012;10.968;2022-08-01T07:38:04;4.97;;;4.00;;
5833;SDS011;2943;48.012;10.968;2022-08-01T07:40:32;3.70;;;3.40;;
5833;SDS011;2943;48.012;10.968;2022-08-01T07:42:59;6.47;;;3.80;;
5833;SDS011;2943;48.012;10.968;2022-08-01T07:45:27;6.13;;;3.73;;
5833;SDS011;2943;48.012;10.968;2022-08-01T07:47:54;4.10;;;3.80;;
5833;SDS011;2943;48.012;10.968;2022-08-01T07:50:22;4.13;;;3.80;;
5833;SDS011;2943;48.012;10.968;2022-08-01T07:52:49;5.17;;;3.13;;
5833;SDS011;2943;48.012;10.968;2022-08-01T07:55:18;3.97;;;3.67;;
5833;SDS011;2943;48.012;10.968;2022-08-01T07:57:48;5.27;;;3.87;;
5833;SDS011;2943;48.012;10.968;2022-08-01T08:00:16;4.33;;;3.93;;
5833;SDS011;2943;48.012;10.968;2022-08-01T08:02:43;7.80;;;3.93;;
5833;SDS011;2943;48.012;10.968;2022-08-01T08:05:11;4.20;;;3.80;;
5833;SDS011;2943;48.012;10.968;2022-08-01T08:07:39;4.30;;;3.90;;
5833;SDS011;2943;48.012;10.968;2022-08-01T08:10:06;4.30;;;3.90;;
5833;SDS011;2943;48.012;10.968;2022-08-01T08:12:36;4.17;;;3.87;;
5833;SDS011;2943;48.012;10.968;2022-08-01T08:15:03;5.70;;;3.63;;
5833;SDS011;2943;48.012;10.968;2022-08-01T08:17:32;18.40;;;3.90;;
5833;SDS011;2943;48.012;10.968;2022-08-01T08:19:59;6.97;;;3.90;;
5833;SDS011;2943;48.012;10.968;2022-08-01T08:22:27;4.63;;;3.90;;
5833;SDS011;2943;48.012;10.968;2022-08-01T08:24:54;7.37;;;3.90;;
5833;SDS011;2943;48.012;10.968;2022-08-01T08:27:22;3.73;;;3.43;;
5833;SDS011;2943;48.012;10.968;2022-08-01T08:29:51;3.73;;;3.37;;
5833;SDS011;2943;48.012;10.968;2022-08-01T08:32:18;4.00;;;3.63;;
5833;SDS011;2943;48.012;10.968;2022-08-01T08:34:46;4.30;;;3.20;;
5833;SDS011;2943;48.012;10.968;2022-08-01T08:37:13;4.30;;;3.10;;
5833;SDS011;2943;48.012;10.968;2022-08-01T08:39:42;6.43;;;3.60;;
5833;SDS011;2943;48.012;10.968;2022-08-01T08:42:09;9.80;;;4.00;;
5833;SDS011;2943;48.012;10.968;2022-08-01T08:44:38;4.30;;;3.17;;
5833;SDS011;2943;48.012;10.968;2022-08-01T08:47:08;3.53;;;2.70;;
5833;SDS011;2943;48.012;10.968;2022-08-01T08:49:38;7.20;;;3.70;;
5833;SDS011;2943;48.012;10.968;2022-08-01T08:52:05;4.57;;;3.33;;
5833;SDS011;2943;48.012;10.968;2022-08-01T08:54:34;3.73;;;3.43;;
5833;SDS011;2943;48.012;10.968;2022-08-01T08:57:04;4.30;;;3.30;;
5833;SDS011;2943;48.012;10.968;2022-08-01T08:59:32;3.90;;;3.20;;
5833;SDS011;2943;48.012;10.968;2022-08-01T09:01:59;3.50;;;3.23;;
5833;SDS011;2943;48.012;10.968;2022-08-01T09:04:28;4.27;;;3.40;;
5833;SDS011;2943;48.012;10.968;2022-08-01T09:06:56;7.77;;;3.40;;
5833;SDS011;2943;48.012;10.968;2022-08-01T09:09:24;6.37;;;3.40;;
5833;SDS011;2943;48.012;10.968;2022-08-01T09:11:51;4.03;;;3.63;;
5833;SDS011;2943;48.012;10.968;2022-08-01T09:14:21;3.30;;;3.00;;
5833;SDS011;2943;48.012;10.968;2022-08-01T09:16:59;3.17;;;2.87;;
5833;SDS011;2943;48.012;10.968;2022-08-01T09:19:35;2.77;;;2.57;;
5833;SDS011;2943;48.012;10.968;2022-08-01T09:22:07;4.33;;;2.80;;
5833;SDS011;2943;48.012;10.968;2022-08-01T09:24:37;5.27;;;3.07;;
5833;SDS011;2943;48.012;10.968;2022-08-01T09:27:15;3.73;;;2.90;;
5833;SDS011;2943;48.012;10.968;2022-08-01T09:29:45;3.93;;;2.97;;
5833;SDS011;2943;48.012;10.968;2022-08-01T09:32:13;4.90;;;2.80;;
5833;SDS011;2943;48.012;10.968;2022-08-01T09:34:41;2.90;;;2.70;;
5833;SDS011;2943;48.012;10.968;2022-08-01T09:37:11;3.80;;;3.03;;
5833;SDS011;2943;48.012;10.968;2022-08-01T09:39:39;4.00;;;3.10;;
5833;SDS011;2943;48.012;10.968;2022-08-01T09:42:21;2.80;;;2.40;;
5833;SDS011;2943;48.012;10.968;2022-08-01T09:44:49;4.73;;;3.03;;
5833;SDS011;2943;48.012;10.968;2022-08-01T09:47:17;3.33;;;3.03;;
5833;SDS011;2943;48.012;10.968;2022-08-01T09:49:54;3.10;;;2.80;;
5833;SDS011;2943;48.012;10.968;2022-08-01T09:52:24;3.10;;;2.80;;
5833;SDS011;2943;48.012;10.968;2022-08-01T09:54:53;3.20;;;2.73;;
5833;SDS011;2943;48.012;10.968;2022-08-01T09:57:22;4.83;;;2.60;;
5833;SDS011;2943;48.012;10.968;2022-08-01T09:59:50;2.57;;;2.37;;
5833;SDS011;2943;48.012;10.968;2022-08-01T10:02:28;2.93;;;2.63;;
5833;SDS011;2943;48.012;10.968;2022-08-01T10:04:59;4.37;;;2.70;;
5833;SDS011;2943;48.012;10.968;2022-08-01T10:07:28;8.13;;;3.70;;
5833;SDS011;2943;48.012;10.968;2022-08-01T10:09:55;3.20;;;2.70;;
5833;SDS011;2943;48.012;10.968;2022-08-01T10:12:34;5.20;;;2.80;;
5833;SDS011;2943;48.012;10.968;2022-08-01T10:15:02;2.80;;;2.50;;
5833;SDS011;2943;48.012;10.968;2022-08-01T10:17:30;2.70;;;2.50;;
5833;SDS011;2943;48.012;10.968;2022-08-01T10:19:59;2.73;;;2.50;;
5833;SDS011;2943;48.012;10.968;2022-08-01T10:22:29;2.70;;;2.50;;
5833;SDS011;2943;48.012;10.968;2022-08-01T10:24:59;5.33;;;3.40;;
5833;SDS011;2943;48.012;10.968;2022-08-01T10:27:29;2.97;;;2.77;;
5833;SDS011;2943;48.012;10.968;2022-08-01T10:30:00;3.00;;;2.80;;
5833;SDS011;2943;48.012;10.968;2022-08-01T10:32:30;6.13;;;2.53;;
5833;SDS011;2943;48.012;10.968;2022-08-01T10:34:59;9.57;;;3.43;;
5833;SDS011;2943;48.012;10.968;2022-08-01T10:37:27;5.33;;;2.43;;
5833;SDS011;2943;48.012;10.968;2022-08-01T10:39:55;3.00;;;2.70;;
5833;SDS011;2943;48.012;10.968;2022-08-01T10:42:23;3.20;;;2.80;;
5833;SDS011;2943;48.012;10.968;2022-08-01T10:44:52;3.00;;;2.70;;
5833;SDS011;2943;48.012;10.968;2022-08-01T10:47:23;2.73;;;2.50;;
5833;SDS011;2943;48.012;10.968;2022-08-01T10:49:58;3.03;;;2.50;;
5833;SDS011;2943;48.012;10.968;2022-08-01T10:52:33;12.97;;;2.97;;
5833;SDS011;2943;48.012;10.968;2022-08-01T10:55:03;3.30;;;2.77;;
5833;SDS011;2943;48.012;10.968;2022-08-01T10:57:41;3.27;;;2.97;;
5833;SDS011;2943;48.012;10.968;2022-08-01T11:00:10;6.87;;;2.60;;
5833;SDS011;2943;48.012;10.968;2022-08-01T11:02:57;2.20;;;2.00;;
5833;SDS011;2943;48.012;10.968;2022-08-01T11:05:30;5.00;;;2.47;;
5833;SDS011;2943;48.012;10.968;2022-08-01T11:08:01;2.73;;;2.50;;
5833;SDS011;2943;48.012;10.968;2022-08-01T11:10:34;2.93;;;2.60;;
5833;SDS011;2943;48.012;10.968;2022-08-01T11:13:04;3.47;;;2.57;;
5833;SDS011;2943;48.012;10.968;2022-08-01T11:15:33;4.53;;;2.60;;
5833;SDS011;2943;48.012;10.968;2022-08-01T11:18:01;4.90;;;2.67;;
5833;SDS011;2943;48.012;10.968;2022-08-01T11:20:32;10.63;;;2.30;;
5833;SDS011;2943;48.012;10.968;2022-08-01T11:26:07;5.80;;;2.47;;
5833;SDS011;2943;48.012;10.968;2022-08-01T11:28:41;2.37;;;2.17;;
5833;SDS011;2943;48.012;10.968;2022-08-01T11:31:26;3.23;;;2.10;;
5833;SDS011;2943;48.012;10.968;2022-08-01T11:33:55;3.00;;;2.30;;
5833;SDS011;2943;48.012;10.968;2022-08-01T11:36:25;2.87;;;1.90;;
5833;SDS011;2943;48.012;10.968;2022-08-01T11:41:41;7.37;;;2.50;;
5833;SDS011;2943;48.012;10.968;2022-08-01T11:44:10;3.70;;;2.33;;
5833;SDS011;2943;48.012;10.968;2022-08-01T11:46:52;3.17;;;2.40;;
5833;SDS011;2943;48.012;10.968;2022-08-01T11:49:31;3.40;;;2.27;;
5833;SDS011;2943;48.012;10.968;2022-08-01T11:52:18;2.30;;;2.20;;
5833;SDS011;2943;48.012;10.968;2022-08-01T11:54:51;1.83;;;1.73;;
5833;SDS011;2943;48.012;10.968;2022-08-01T11:57:20;5.63;;;2.40;;
5833;SDS011;2943;48.012;10.968;2022-08-01T11:59:51;9.23;;;2.50;;
5833;SDS011;2943;48.012;10.968;2022-08-01T12:02:20;6.70;;;3.07;;
5833;SDS011;2943;48.012;10.968;2022-08-01T12:04:49;3.10;;;2.60;;
5833;SDS011;2943;48.012;10.968;2022-08-01T12:07:21;3.10;;;2.80;;
5833;SDS011;2943;48.012;10.968;2022-08-01T12:09:56;2.50;;;2.30;;
5833;SDS011;2943;48.012;10.968;2022-08-01T12:12:26;8.03;;;2.60;;
5833;SDS011;2943;48.012;10.968;2022-08-01T12:14:55;4.97;;;2.30;;
5833;SDS011;2943;48.012;10.968;2022-08-01T12:17:33;3.10;;;2.20;;
5833;SDS011;2943;48.012;10.968;2022-08-01T12:20:02;3.43;;;2.00;;
5833;SDS011;2943;48.012;10.968;2022-08-01T12:22:32;4.30;;;2.53;;
5833;SDS011;2943;48.012;10.968;2022-08-01T12:25:07;3.10;;;2.20;;
5833;SDS011;2943;48.012;10.968;2022-08-01T12:27:36;2.47;;;2.27;;
5833;SDS011;2943;48.012;10.968;2022-08-01T12:30:05;2.37;;;2.20;;
5833;SDS011;2943;48.012;10.968;2022-08-01T12:32:35;2.83;;;2.20;;
5833;SDS011;2943;48.012;10.968;2022-08-01T12:35:04;2.60;;;2.40;;
5833;SDS011;2943;48.012;10.968;2022-08-01T12:37:36;2.47;;;2.27;;
5833;SDS011;2943;48.012;10.968;2022-08-01T12:40:11;2.60;;;2.40;;
5833;SDS011;2943;48.012;10.968;2022-08-01T12:42:40;2.80;;;2.50;;
5833;SDS011;2943;48.012;10.968;2022-08-01T12:45:09;4.17;;;2.40;;
5833;SDS011;2943;48.012;10.968;2022-08-01T12:47:39;5.73;;;2.53;;
5833;SDS011;2943;48.012;10.968;2022-08-01T12:50:07;2.60;;;2.30;;
5833;SDS011;2943;48.012;10.968;2022-08-01T12:52:39;2.20;;;1.90;;
5833;SDS011;2943;48.012;10.968;2022-08-01T12:55:12;1.90;;;1.80;;
5833;SDS011;2943;48.012;10.968;2022-08-01T12:57:41;2.53;;;2.33;;
5833;SDS011;2943;48.012;10.968;2022-08-01T13:00:12;7.33;;;2.47;;
5833;SDS011;2943;48.012;10.968;2022-08-01T13:02:42;8.50;;;2.30;;
5833;SDS011;2943;48.012;10.968;2022-08-01T13:05:11;3.93;;;2.40;;
5833;SDS011;2943;48.012;10.968;2022-08-01T13:07:42;2.13;;;2.00;;
5833;SDS011;2943;48.012;10.968;2022-08-01T13:10:11;2.73;;;2.53;;
5833;SDS011;2943;48.012;10.968;2022-08-01T13:12:41;2.50;;;2.30;;
5833;SDS011;2943;48.012;10.968;2022-08-01T13:15:19;3.35;;;2.00;;
5833;SDS011;2943;48.012;10.968;2022-08-01T13:17:51;2.47;;;2.22;;
5833;SDS011;2943;48.012;10.968;2022-08-01T13:20:28;2.10;;;1.90;;
5833;SDS011;2943;48.012;10.968;2022-08-01T13:23:11;3.70;;;2.10;;
5833;SDS011;2943;48.012;10.968;2022-08-01T13:25:46;2.20;;;2.00;;
5833;SDS011;2943;48.012;10.968;2022-08-01T13:28:15;3.83;;;2.28;;
5833;SDS011;2943;48.012;10.968;2022-08-01T13:30:57;2.15;;;1.95;;
5833;SDS011;2943;48.012;10.968;2022-08-01T13:33:27;3.45;;;2.03;;
5833;SDS011;2943;48.012;10.968;2022-08-01T13:36:06;2.80;;;1.70;;
5833;SDS011;2943;48.012;10.968;2022-08-01T13:38:34;2.72;;;2.10;;
5833;SDS011;2943;48.012;10.968;2022-08-01T13:41:19;5.35;;;2.17;;
5833;SDS011;2943;48.012;10.968;2022-08-01T13:43:47;5.05;;;2.15;;
5833;SDS011;2943;48.012;10.968;2022-08-01T13:46:14;3.27;;;2.27;;
5833;SDS011;2943;48.012;10.968;2022-08-01T13:48:42;2.55;;;2.35;;
5833;SDS011;2943;48.012;10.968;2022-08-01T13:51:09;2.40;;;2.20;;
5833;SDS011;2943;48.012;10.968;2022-08-01T13:53:38;2.40;;;2.20;;
5833;SDS011;2943;48.012;10.968;2022-08-01T13:56:06;3.42;;;2.15;;
5833;SDS011;2943;48.012;10.968;2022-08-01T13:58:33;3.30;;;2.30;;
5833;SDS011;2943;48.012;10.968;2022-08-01T14:01:00;2.37;;;2.10;;
5833;SDS011;2943;48.012;10.968;2022-08-01T14:03:28;2.53;;;2.33;;
5833;SDS011;2943;48.012;10.968;2022-08-01T14:05:55;5.27;;;2.30;;
5833;SDS011;2943;48.012;10.968;2022-08-01T14:08:23;6.00;;;2.53;;
5833;SDS011;2943;48.012;10.968;2022-08-01T14:10:52;8.10;;;2.23;;
5833;SDS011;2943;48.012;10.968;2022-08-01T14:13:22;7.77;;;2.43;;
5833;SDS011;2943;48.012;10.968;2022-08-01T14:15:49;3.10;;;2.20;;
5833;SDS011;2943;48.012;10.968;2022-08-01T14:18:17;5.43;;;2.20;;
5833;SDS011;2943;48.012;10.968;2022-08-01T14:20:44;11.33;;;2.30;;
5833;SDS011;2943;48.012;10.968;2022-08-01T14:23:12;2.33;;;2.10;;
5833;SDS011;2943;48.012;10.968;2022-08-01T14:25:39;4.60;;;2.40;;
5833;SDS011;2943;48.012;10.968;2022-08-01T14:28:09;2.60;;;2.40;;
5833;SDS011;2943;48.012;10.968;2022-08-01T14:30:36;3.03;;;2.30;;
5833;SDS011;2943;48.012;10.968;2022-08-01T14:33:04;2.90;;;2.70;;
5833;SDS011;2943;48.012;10.968;2022-08-01T14:35:31;5.77;;;2.80;;
5833;SDS011;2943;48.012;10.968;2022-08-01T14:37:59;3.07;;;2.40;;
5833;SDS011;2943;48.012;10.968;2022-08-01T14:40:26;3.10;;;2.80;;
5833;SDS011;2943;48.012;10.968;2022-08-01T14:42:54;7.63;;;2.40;;
5833;SDS011;2943;48.012;10.968;2022-08-01T14:45:23;3.50;;;2.40;;
5833;SDS011;2943;48.012;10.968;2022-08-01T14:47:50;2.60;;;2.40;;
5833;SDS011;2943;48.012;10.968;2022-08-01T14:50:18;2.67;;;2.37;;
5833;SDS011;2943;48.012;10.968;2022-08-01T14:52:45;2.80;;;2.33;;
5833;SDS011;2943;48.012;10.968;2022-08-01T14:55:13;3.13;;;2.47;;
5833;SDS011;2943;48.012;10.968;2022-08-01T14:57:40;4.10;;;2.70;;
5833;SDS011;2943;48.012;10.968;2022-08-01T15:00:08;4.07;;;2.80;;
5833;SDS011;2943;48.012;10.968;2022-08-01T15:02:39;4.63;;;2.63;;
5833;SDS011;2943;48.012;10.968;2022-08-01T15:05:07;3.93;;;2.87;;
5833;SDS011;2943;48.012;10.968;2022-08-01T15:07:35;4.47;;;2.77;;
5833;SDS011;2943;48.012;10.968;2022-08-01T15:10:03;4.30;;;2.97;;
5833;SDS011;2943;48.012;10.968;2022-08-01T15:12:33;4.00;;;3.03;;
5833;SDS011;2943;48.012;10.968;2022-08-01T15:15:00;4.57;;;3.17;;
5833;SDS011;2943;48.012;10.968;2022-08-01T15:17:28;6.00;;;2.87;;
5833;SDS011;2943;48.012;10.968;2022-08-01T15:19:59;5.97;;;2.77;;
5833;SDS011;2943;48.012;10.968;2022-08-01T15:22:27;3.20;;;2.93;;
5833;SDS011;2943;48.012;10.968;2022-08-01T15:24:56;5.83;;;2.53;;